createdAt,value
2024-02-18T00:00:14.495Z,102787.59
2024-02-18T00:02:42.539Z,102777.16
2024-02-18T00:05:13.667Z,102765.03
2024-02-18T00:07:41.485Z,102765.00
2024-02-18T00:10:11.561Z,102764.53
2024-02-18T00:12:39.359Z,102776.53
2024-02-18T00:15:08.232Z,102762.28
2024-02-18T00:17:36.178Z,102761.56
2024-02-18T00:20:05.949Z,102758.81
2024-02-18T00:22:33.731Z,102748.94
2024-02-18T00:25:02.196Z,102746.56
2024-02-18T00:27:31.491Z,102744.44
2024-02-18T00:29:59.998Z,102744.56
2024-02-18T00:32:28.049Z,102748.94
2024-02-18T00:34:56.467Z,102743.38
2024-02-18T00:37:27.727Z,102751.34
2024-02-18T00:39:56.096Z,102746.72
2024-02-18T00:42:25.246Z,102744.91
2024-02-18T00:44:54.690Z,102736.72
2024-02-18T00:47:22.459Z,102738.13
2024-02-18T00:49:51.118Z,102738.13
2024-02-18T00:52:19.021Z,102736.47
2024-02-18T00:54:47.159Z,102734.00
2024-02-18T00:57:15.246Z,102733.16
2024-02-18T00:59:43.573Z,102733.84
2024-02-18T01:02:12.705Z,102737.63
2024-02-18T01:04:41.119Z,102726.13
2024-02-18T01:07:10.777Z,102725.75
2024-02-18T01:09:38.909Z,102727.06
2024-02-18T01:12:07.671Z,102733.94
2024-02-18T01:14:36.061Z,102722.66
2024-02-18T01:17:03.978Z,102720.03
2024-02-18T01:19:33.745Z,102720.41
2024-02-18T01:22:01.646Z,102712.91
2024-02-18T01:24:30.340Z,102703.16
2024-02-18T01:26:58.500Z,102708.16
2024-02-18T01:29:26.866Z,102706.25
2024-02-18T01:31:54.876Z,102706.25
2024-02-18T01:34:23.299Z,102699.63
2024-02-18T01:36:52.740Z,102706.72
2024-02-18T01:39:22.143Z,102699.16
2024-02-18T01:41:49.990Z,102699.16
2024-02-18T01:44:18.322Z,102693.69
2024-02-18T01:46:46.719Z,102690.63
2024-02-18T01:49:14.999Z,102691.91
2024-02-18T01:51:42.955Z,102688.22
2024-02-18T01:54:13.851Z,102684.91
2024-02-18T01:56:44.095Z,102684.19
2024-02-18T01:59:12.645Z,102683.13
2024-02-18T02:01:40.937Z,102679.81
2024-02-18T02:04:10.016Z,102685.75
2024-02-18T02:06:38.639Z,102678.50
2024-02-18T02:09:08.454Z,102686.09
2024-02-18T02:11:37.626Z,102685.63
2024-02-18T02:14:06.138Z,102679.34
2024-02-18T02:16:34.096Z,102674.72
2024-02-18T02:19:02.767Z,102673.88
2024-02-18T02:21:30.581Z,102676.13
2024-02-18T02:23:59.188Z,102674.03
2024-02-18T02:26:31.553Z,102675.31
2024-02-18T02:29:09.225Z,102673.53
2024-02-18T02:31:36.995Z,102670.09
2024-02-18T02:34:05.623Z,102670.91
2024-02-18T02:36:33.409Z,102670.22
2024-02-18T02:39:01.882Z,102667.34
2024-02-18T02:41:29.715Z,102666.06
2024-02-18T02:43:58.106Z,102664.75
2024-02-18T02:46:27.540Z,102655.97
2024-02-18T02:48:55.989Z,102651.81
2024-02-18T02:51:23.998Z,102652.88
2024-02-18T02:53:52.390Z,102640.44
2024-02-18T02:56:20.117Z,102646.25
2024-02-18T02:58:49.128Z,102648.38
2024-02-18T03:01:17.009Z,102639.13
2024-02-18T03:03:46.949Z,102649.56
2024-02-18T03:06:14.798Z,102645.06
2024-02-18T03:08:44.359Z,102635.47
2024-02-18T03:11:12.988Z,102638.53
2024-02-18T03:13:41.383Z,102633.31
2024-02-18T03:16:09.392Z,102630.38
2024-02-18T03:18:37.993Z,102624.56
2024-02-18T03:21:07.371Z,102623.25
2024-02-18T03:23:35.801Z,102622.41
2024-02-18T03:26:03.662Z,102621.59
2024-02-18T03:28:31.863Z,102621.00
2024-02-18T03:30:59.722Z,102603.69
2024-02-18T03:33:27.878Z,102611.88
2024-02-18T03:35:55.658Z,102611.03
2024-02-18T03:38:25.409Z,102605.94
2024-02-18T03:40:53.214Z,102595.50
2024-02-18T03:43:21.611Z,102595.97
2024-02-18T03:45:49.395Z,102598.81
2024-02-18T03:48:17.848Z,102593.38
2024-02-18T03:50:45.611Z,102590.41
2024-02-18T03:53:13.988Z,102579.50
2024-02-18T03:55:43.109Z,102575.94
2024-02-18T03:58:12.821Z,102579.84
2024-02-18T04:00:40.664Z,102584.69
2024-02-18T04:03:09.437Z,102580.56
2024-02-18T04:05:37.301Z,102572.88
2024-02-18T04:08:06.389Z,102577.03
2024-02-18T04:10:34.150Z,102571.91
2024-02-18T04:13:04.006Z,102581.16
2024-02-18T04:15:31.913Z,102574.63
2024-02-18T04:18:00.359Z,102577.97
2024-02-18T04:20:28.129Z,102572.38
2024-02-18T04:22:56.997Z,102569.41
2024-02-18T04:25:24.761Z,102564.81
2024-02-18T04:27:53.170Z,102557.91
2024-02-18T04:30:22.527Z,102565.28
2024-02-18T04:32:50.934Z,102557.56
2024-02-18T04:35:18.690Z,102554.38
2024-02-18T04:37:48.476Z,102551.41
2024-02-18T04:40:16.271Z,102541.91
2024-02-18T04:42:44.699Z,102539.19
2024-02-18T04:45:12.462Z,102537.75
2024-02-18T04:47:41.585Z,102541.91
2024-02-18T04:50:09.969Z,102531.69
2024-02-18T04:52:38.553Z,102535.47
2024-02-18T04:55:07.090Z,102534.31
2024-02-18T04:57:35.232Z,102521.50
2024-02-18T05:00:03.898Z,102526.84
2024-02-18T05:02:32.284Z,102520.78
2024-02-18T05:05:03.178Z,102518.16
2024-02-18T05:07:31.257Z,102522.09
2024-02-18T05:09:59.392Z,102520.03
2024-02-18T05:12:27.793Z,102522.53
2024-02-18T05:14:55.542Z,102516.97
2024-02-18T05:17:23.969Z,102530.13
2024-02-18T05:19:52.705Z,102522.75
2024-02-18T05:22:22.796Z,102521.91
2024-02-18T05:24:51.054Z,102508.13
2024-02-18T05:27:19.913Z,102515.56
2024-02-18T05:29:47.698Z,102512.59
2024-02-18T05:32:16.038Z,102513.16
2024-02-18T05:34:44.107Z,102510.53
2024-02-18T05:37:12.385Z,102504.09
2024-02-18T05:39:41.549Z,102504.34
2024-02-18T05:42:09.930Z,102493.50
2024-02-18T05:44:37.720Z,102494.41
2024-02-18T05:47:06.551Z,102493.84
2024-02-18T05:49:34.573Z,102483.56
2024-02-18T05:52:02.715Z,102487.91
2024-02-18T05:54:30.523Z,102486.94
2024-02-18T05:57:00.218Z,102477.56
2024-02-18T05:59:27.938Z,102474.09
2024-02-18T06:01:56.391Z,102471.59
2024-02-18T06:04:24.254Z,102474.94
2024-02-18T06:06:52.791Z,102473.50
2024-02-18T06:09:20.849Z,102471.28
2024-02-18T06:11:49.810Z,102468.28
2024-02-18T06:14:18.974Z,102470.03
2024-02-18T06:16:47.334Z,102472.69
2024-02-18T06:19:17.513Z,102466.50
2024-02-18T06:21:46.633Z,102467.13
2024-02-18T06:24:14.544Z,102461.28
2024-02-18T06:26:42.904Z,102458.53
2024-02-18T06:29:11.377Z,102460.41
2024-02-18T06:31:40.768Z,102458.28
2024-02-18T06:34:08.612Z,102451.31
2024-02-18T06:36:37.971Z,102449.91
2024-02-18T06:39:05.911Z,102452.66
2024-02-18T06:41:34.263Z,102448.06
2024-02-18T06:44:01.974Z,102448.25
2024-02-18T06:46:30.332Z,102444.75
2024-02-18T06:48:59.507Z,102444.13
2024-02-18T06:51:27.958Z,102441.38
2024-02-18T06:53:55.781Z,102427.78
2024-02-18T06:56:24.139Z,102425.13
2024-02-18T06:58:52.100Z,102418.31
2024-02-18T07:01:21.061Z,102422.97
2024-02-18T07:03:49.045Z,102417.50
2024-02-18T07:06:19.769Z,102414.53
2024-02-18T07:08:47.641Z,102407.34
2024-02-18T07:11:16.767Z,102408.78
2024-02-18T07:13:45.016Z,102408.00
2024-02-18T07:16:13.417Z,102405.44
2024-02-18T07:18:41.315Z,102407.03
2024-02-18T07:21:09.490Z,102408.69
2024-02-18T07:23:38.574Z,102403.63
2024-02-18T07:26:06.640Z,102392.91
2024-02-18T07:28:34.337Z,102391.88
2024-02-18T07:31:02.416Z,102392.84
2024-02-18T07:33:30.409Z,102387.13
2024-02-18T07:35:58.849Z,102387.53
2024-02-18T07:38:27.656Z,102389.28
2024-02-18T07:40:57.092Z,102383.56
2024-02-18T07:43:26.507Z,102379.78
2024-02-18T07:45:55.011Z,102378.25
2024-02-18T07:48:23.293Z,102366.41
2024-02-18T07:50:51.645Z,102374.19
2024-02-18T07:53:19.908Z,102369.44
2024-02-18T07:55:48.307Z,102363.34
2024-02-18T07:58:17.626Z,102363.59
2024-02-18T08:00:46.385Z,102359.22
2024-02-18T08:03:14.170Z,102353.63
2024-02-18T08:05:43.234Z,102347.72
2024-02-18T08:08:11.107Z,102350.72
2024-02-18T08:10:39.702Z,102348.09
2024-02-18T08:13:07.839Z,102339.41
2024-02-18T08:15:36.975Z,102336.25
2024-02-18T08:18:05.161Z,102326.91
2024-02-18T08:20:33.312Z,102317.69
2024-02-18T08:23:01.114Z,102318.06
2024-02-18T08:25:29.950Z,102315.88
2024-02-18T08:27:57.769Z,102309.63
2024-02-18T08:30:26.680Z,102310.25
2024-02-18T08:32:56.249Z,102309.75
2024-02-18T08:35:24.599Z,102306.47
2024-02-18T08:37:52.823Z,102299.28
2024-02-18T08:40:21.218Z,102298.75
2024-02-18T08:42:49.118Z,102290.50
2024-02-18T08:45:17.708Z,102286.34
2024-02-18T08:47:45.760Z,102286.63
2024-02-18T08:50:15.665Z,102277.59
2024-02-18T08:52:43.421Z,102285.00
2024-02-18T08:55:11.583Z,102281.44
2024-02-18T08:57:39.412Z,102273.19
2024-02-18T09:00:10.502Z,102277.56
2024-02-18T09:02:38.356Z,102275.34
2024-02-18T09:05:06.828Z,102272.34
2024-02-18T09:07:36.399Z,102268.50
2024-02-18T09:10:04.758Z,102265.22
2024-02-18T09:12:32.544Z,102267.97
2024-02-18T09:15:01.185Z,102269.59
2024-02-18T09:17:28.952Z,102266.03
2024-02-18T09:19:57.299Z,102254.78
2024-02-18T09:22:25.266Z,102260.25
2024-02-18T09:24:54.706Z,102261.94
2024-02-18T09:27:22.482Z,102260.56
2024-02-18T09:29:50.646Z,102247.88
2024-02-18T09:32:18.391Z,102253.38
2024-02-18T09:34:48.121Z,102251.94
2024-02-18T09:37:15.947Z,102245.06
2024-02-18T09:39:44.223Z,102242.56
2024-02-18T09:42:14.342Z,102237.09
2024-02-18T09:44:43.429Z,102239.28
2024-02-18T09:47:15.396Z,102234.13
2024-02-18T09:49:44.105Z,102230.19
2024-02-18T09:52:14.022Z,102223.38
2024-02-18T09:54:42.458Z,102229.91
2024-02-18T09:57:10.298Z,102221.28
2024-02-18T09:59:40.058Z,102221.56
2024-02-18T10:02:09.136Z,102214.06
2024-02-18T10:04:37.401Z,102210.38
2024-02-18T10:07:06.272Z,102208.84
2024-02-18T10:09:34.663Z,102204.78
2024-02-18T10:12:02.447Z,102207.28
2024-02-18T10:14:30.490Z,102204.31
2024-02-18T10:16:59.797Z,102197.53
2024-02-18T10:19:28.253Z,102195.00
2024-02-18T10:21:56.243Z,102198.34
2024-02-18T10:24:25.250Z,102185.19
2024-02-18T10:26:53.602Z,102182.09
2024-02-18T10:29:21.379Z,102178.25
2024-02-18T10:31:49.430Z,102179.75
2024-02-18T10:34:20.015Z,102176.06
2024-02-18T10:36:50.586Z,102165.56
2024-02-18T10:39:19.046Z,102166.75
2024-02-18T10:41:54.532Z,102164.25
2024-02-18T10:44:23.117Z,102156.66
2024-02-18T10:46:52.495Z,102154.84
2024-02-18T10:49:30.262Z,102152.31
2024-02-18T10:52:13.242Z,102145.16
2024-02-18T10:54:47.925Z,102146.38
2024-02-18T10:57:21.256Z,102132.69
2024-02-18T10:59:57.630Z,102134.66
2024-02-18T11:02:30.074Z,102133.28
2024-02-18T11:04:59.741Z,102133.19
2024-02-18T11:07:29.973Z,102126.22
2024-02-18T11:09:59.070Z,102121.53
2024-02-18T11:12:28.005Z,102106.81
2024-02-18T11:14:58.345Z,102103.34
2024-02-18T11:17:27.309Z,102099.47
2024-02-18T11:19:57.018Z,102104.63
2024-02-18T11:22:28.293Z,102089.00
2024-02-18T11:24:56.159Z,102083.84
2024-02-18T11:27:24.305Z,102080.25
2024-02-18T11:29:52.994Z,102082.34
2024-02-18T11:32:21.279Z,102076.84
2024-02-18T11:34:50.555Z,102070.94
2024-02-18T11:37:31.032Z,102069.28
2024-02-18T11:40:00.622Z,102061.84
2024-02-18T11:42:29.487Z,102051.03
2024-02-18T11:45:20.674Z,102042.00
2024-02-18T11:47:49.883Z,102043.97
2024-02-18T11:50:19.439Z,102029.28
2024-02-18T11:52:50.798Z,102029.13
2024-02-18T11:55:20.436Z,102026.59
2024-02-18T11:57:50.048Z,102012.31
2024-02-18T12:00:19.920Z,102006.16
2024-02-18T12:02:52.114Z,101997.56
2024-02-18T12:05:22.114Z,101993.25
2024-02-18T12:07:53.732Z,101988.38
2024-02-18T12:10:21.675Z,101992.78
2024-02-18T12:12:49.577Z,101986.75
2024-02-18T12:15:23.316Z,101976.88
2024-02-18T12:17:54.924Z,101967.63
2024-02-18T12:20:27.218Z,101967.34
2024-02-18T12:22:58.101Z,101956.91
2024-02-18T12:25:26.552Z,101953.31
2024-02-18T12:27:54.506Z,101949.50
2024-02-18T12:30:24.405Z,101937.69
2024-02-18T12:32:54.278Z,101942.38
2024-02-18T12:35:25.676Z,101933.03
2024-02-18T12:37:53.607Z,101932.47
2024-02-18T12:40:23.032Z,101933.84
2024-02-18T12:43:14.539Z,101930.28
2024-02-18T12:45:49.386Z,101928.38
2024-02-18T12:48:25.160Z,101921.53
2024-02-18T12:51:10.966Z,101912.50
2024-02-18T12:53:39.919Z,101913.31
2024-02-18T12:56:13.386Z,101915.47
2024-02-18T12:58:41.896Z,101910.53
2024-02-18T13:01:11.223Z,101905.34
2024-02-18T13:03:40.667Z,101905.06
2024-02-18T13:06:11.579Z,101893.25
2024-02-18T13:08:39.554Z,101898.47
2024-02-18T13:11:09.709Z,101895.72
2024-02-18T13:13:37.474Z,101890.25
2024-02-18T13:16:06.040Z,101876.53
2024-02-18T13:18:34.376Z,101874.88
2024-02-18T13:21:02.911Z,101879.00
2024-02-18T13:23:30.712Z,101870.22
2024-02-18T13:25:58.512Z,101857.31
2024-02-18T13:28:28.003Z,101862.84
2024-02-18T13:30:56.291Z,101855.16
2024-02-18T13:33:24.391Z,101845.03
2024-02-18T13:35:52.780Z,101848.31
2024-02-18T13:38:21.066Z,101837.63
2024-02-18T13:40:49.595Z,101829.63
2024-02-18T13:43:18.888Z,101821.94
2024-02-18T13:45:48.400Z,101819.25
2024-02-18T13:48:16.291Z,101802.53
2024-02-18T13:50:44.442Z,101793.16
2024-02-18T13:53:12.191Z,101783.34
2024-02-18T13:55:40.446Z,101780.06
2024-02-18T13:58:08.373Z,101775.41
2024-02-18T14:00:36.587Z,101765.81
2024-02-18T14:03:06.182Z,101757.06
2024-02-18T14:05:34.518Z,101746.09
2024-02-18T14:08:02.990Z,101737.63
2024-02-18T14:10:30.828Z,101739.81
2024-02-18T14:12:58.838Z,101720.06
2024-02-18T14:15:27.574Z,101714.88
2024-02-18T14:17:56.997Z,101714.88
2024-02-18T14:20:26.586Z,101699.25
2024-02-18T14:22:54.380Z,101705.28
2024-02-18T14:25:23.212Z,101696.50
2024-02-18T14:27:51.560Z,101688.00
2024-02-18T14:30:20.172Z,101679.81
2024-02-18T14:32:48.134Z,101681.44
2024-02-18T14:35:16.259Z,101686.97
2024-02-18T14:37:45.400Z,101675.41
2024-02-18T14:40:15.674Z,101671.63
2024-02-18T14:42:44.510Z,101665.59
2024-02-18T14:45:13.708Z,101657.66
2024-02-18T14:47:42.062Z,101656.28
2024-02-18T14:50:11.431Z,101647.78
2024-02-18T14:52:39.881Z,101637.38
2024-02-18T14:55:10.639Z,101633.25
2024-02-18T14:57:39.150Z,101630.22
2024-02-18T15:00:10.324Z,101616.53
2024-02-18T15:02:40.623Z,101614.63
2024-02-18T15:05:10.777Z,101617.06
2024-02-18T15:07:38.769Z,101612.13
2024-02-18T15:10:10.207Z,101609.66
2024-02-18T15:12:38.298Z,101613.50
2024-02-18T15:15:07.349Z,101605.84
2024-02-18T15:17:35.102Z,101605.81
2024-02-18T15:20:04.988Z,101602.59
2024-02-18T15:22:34.778Z,101606.16
2024-02-18T15:25:04.984Z,101603.97
2024-02-18T15:27:34.208Z,101591.91
2024-02-18T15:30:03.163Z,101597.38
2024-02-18T15:32:30.890Z,101591.69
2024-02-18T15:34:59.013Z,101589.22
2024-02-18T15:37:26.832Z,101577.97
2024-02-18T15:39:54.911Z,101578.78
2024-02-18T15:42:22.686Z,101575.75
2024-02-18T15:44:52.387Z,101572.72
2024-02-18T15:47:20.130Z,101566.75
2024-02-18T15:49:50.178Z,101563.19
2024-02-18T15:52:18.112Z,101560.22
2024-02-18T15:54:45.987Z,101544.59
2024-02-18T15:57:14.378Z,101533.91
2024-02-18T15:59:42.142Z,101529.25
2024-02-18T16:02:12.132Z,101521.28
2024-02-18T16:04:43.292Z,101504.06
2024-02-18T16:07:11.855Z,101497.78
2024-02-18T16:09:39.732Z,101489.59
2024-02-18T16:12:09.071Z,101486.84
2024-02-18T16:14:37.247Z,101484.66
2024-02-18T16:17:05.594Z,101490.94
2024-02-18T16:19:34.781Z,101493.34
2024-02-18T16:22:03.307Z,101484.88
2024-02-18T16:24:31.195Z,101475.56
2024-02-18T16:26:59.354Z,101474.22
2024-02-18T16:29:27.125Z,101468.22
2024-02-18T16:31:56.152Z,101466.38
2024-02-18T16:34:24.245Z,101451.59
2024-02-18T16:36:53.904Z,101450.53
2024-02-18T16:39:21.674Z,101443.13
2024-02-18T16:41:49.694Z,101436.88
2024-02-18T16:44:17.458Z,101431.13
2024-02-18T16:46:45.856Z,101435.78
2024-02-18T16:49:17.517Z,101427.31
2024-02-18T16:51:46.043Z,101413.09
2024-02-18T16:54:16.903Z,101407.63
2024-02-18T16:56:45.294Z,101400.47
2024-02-18T16:59:13.034Z,101402.94
2024-02-18T17:01:46.692Z,101404.06
2024-02-18T17:04:14.662Z,101395.84
2024-02-18T17:06:44.565Z,101387.63
2024-02-18T17:09:14.329Z,101379.47
2024-02-18T17:11:43.423Z,101379.47
2024-02-18T17:14:12.998Z,101377.56
2024-02-18T17:16:40.833Z,101376.75
2024-02-18T17:19:10.773Z,101378.94
2024-02-18T17:21:38.994Z,101363.59
2024-02-18T17:24:07.163Z,101357.06
2024-02-18T17:26:35.028Z,101354.03
2024-02-18T17:29:05.099Z,101344.75
2024-02-18T17:31:32.905Z,101343.66
2024-02-18T17:34:01.344Z,101341.22
2024-02-18T17:36:29.324Z,101330.28
2024-02-18T17:38:57.698Z,101326.44
2024-02-18T17:41:25.958Z,101320.41
2024-02-18T17:43:55.770Z,101318.22
2024-02-18T17:46:28.137Z,101319.88
2024-02-18T17:48:56.275Z,101314.38
2024-02-18T17:51:32.131Z,101306.47
2024-02-18T17:54:01.199Z,101299.91
2024-02-18T17:56:31.326Z,101291.44
2024-02-18T17:59:01.140Z,101290.34
2024-02-18T18:01:30.339Z,101287.88
2024-02-18T18:03:58.822Z,101282.38
2024-02-18T18:06:26.756Z,101274.22
2024-02-18T18:08:55.178Z,101270.09
2024-02-18T18:11:23.067Z,101276.13
2024-02-18T18:13:50.989Z,101270.09
2024-02-18T18:16:18.809Z,101271.72
2024-02-18T18:18:49.872Z,101262.94
2024-02-18T18:21:17.683Z,101259.69
2024-02-18T18:23:49.963Z,101255.03
2024-02-18T18:26:21.441Z,101245.44
2024-02-18T18:28:49.791Z,101245.44
2024-02-18T18:31:17.796Z,101246.25
2024-02-18T18:33:46.515Z,101245.44
2024-02-18T18:36:18.461Z,101249.28
2024-02-18T18:38:46.829Z,101225.22
2024-02-18T18:41:14.594Z,101223.25
2024-02-18T18:43:44.903Z,101221.38
2024-02-18T18:46:12.910Z,101210.16
2024-02-18T18:48:40.742Z,101206.38
2024-02-18T18:51:08.617Z,101212.69
2024-02-18T18:53:39.611Z,101191.34
2024-02-18T18:56:09.874Z,101194.03
2024-02-18T18:58:39.215Z,101192.69
2024-02-18T19:01:07.041Z,101184.19
2024-02-18T19:03:34.936Z,101179.81
2024-02-18T19:06:03.149Z,101164.47
2024-02-18T19:08:31.223Z,101151.59
2024-02-18T19:11:01.166Z,101153.47
2024-02-18T19:13:41.345Z,101150.81
2024-02-18T19:16:18.209Z,101142.53
2024-02-18T19:18:47.026Z,101129.44
2024-02-18T19:21:15.131Z,101135.63
2024-02-18T19:23:43.015Z,101124.38
2024-02-18T19:26:14.636Z,101121.00
2024-02-18T19:28:43.294Z,101126.78
2024-02-18T19:31:14.361Z,101118.44
2024-02-18T19:33:44.790Z,101115.81
2024-02-18T19:36:14.430Z,101108.66
2024-02-18T19:38:44.003Z,101102.34
2024-02-18T19:41:13.235Z,101103.78
2024-02-18T19:43:42.558Z,101104.94
2024-02-18T19:46:10.654Z,101090.31
2024-02-18T19:48:41.680Z,101088.22
2024-02-18T19:51:11.291Z,101082.69
2024-02-18T19:53:39.084Z,101079.38
2024-02-18T19:56:07.877Z,101074.94
2024-02-18T19:58:36.921Z,101073.38
2024-02-18T20:01:06.613Z,101064.25
2024-02-18T20:03:35.757Z,101068.72
2024-02-18T20:06:04.265Z,101067.97
2024-02-18T20:08:38.258Z,101064.06
2024-02-18T20:11:08.068Z,101066.22
2024-02-18T20:13:36.026Z,101067.53
2024-02-18T20:16:05.372Z,101065.91
2024-02-18T20:18:36.673Z,101063.97
2024-02-18T20:21:05.943Z,101052.66
2024-02-18T20:23:33.842Z,101044.47
2024-02-18T20:26:02.018Z,101050.16
2024-02-18T20:28:29.874Z,101050.06
2024-02-18T20:30:58.163Z,101039.94
2024-02-18T20:33:26.074Z,101035.84
2024-02-18T20:35:56.546Z,101030.91
2024-02-18T20:38:24.557Z,101035.72
2024-02-18T20:40:54.447Z,101022.31
2024-02-18T20:43:22.453Z,101025.31
2024-02-18T20:45:51.351Z,101017.66
2024-02-18T20:48:19.229Z,101014.88
2024-02-18T20:50:48.932Z,101011.34
2024-02-18T20:53:18.320Z,101006.81
2024-02-18T20:55:46.811Z,101007.84
2024-02-18T20:58:15.946Z,101010.78
2024-02-18T21:00:44.310Z,101005.59
2024-02-18T21:03:12.670Z,100997.00
2024-02-18T21:05:40.774Z,101004.56
2024-02-18T21:08:10.000Z,100997.91
2024-02-18T21:10:39.798Z,100995.31
2024-02-18T21:13:08.712Z,101006.78
2024-02-18T21:15:36.586Z,101006.13
2024-02-18T21:18:05.096Z,101000.78
2024-02-18T21:20:32.839Z,101006.78
2024-02-18T21:23:01.284Z,101000.13
2024-02-18T21:25:29.624Z,101007.84
2024-02-18T21:27:58.917Z,101001.97
2024-02-18T21:30:27.288Z,101002.19
2024-02-18T21:32:55.181Z,101002.78
2024-02-18T21:35:24.903Z,101002.78
2024-02-18T21:37:54.560Z,101013.44
2024-02-18T21:40:22.826Z,101018.09
2024-02-18T21:42:50.764Z,101010.25
2024-02-18T21:45:20.985Z,101011.66
2024-02-18T21:47:50.275Z,101013.03
2024-02-18T21:50:21.469Z,101009.97
2024-02-18T21:52:49.343Z,101014.31
2024-02-18T21:55:17.702Z,101009.78
2024-02-18T21:57:45.938Z,101011.13
2024-02-18T22:00:14.617Z,101010.00
2024-02-18T22:02:43.698Z,101004.53
2024-02-18T22:05:11.858Z,101012.22
2024-02-18T22:07:39.678Z,101006.09
2024-02-18T22:10:09.427Z,100996.84
2024-02-18T22:12:37.538Z,101008.22
2024-02-18T22:15:06.140Z,101013.19
2024-02-18T22:17:34.003Z,101009.63
2024-02-18T22:20:04.331Z,101005.47
2024-02-18T22:22:32.268Z,101003.56
2024-02-18T22:25:00.413Z,101006.88
2024-02-18T22:27:28.288Z,101005.25
2024-02-18T22:29:56.297Z,101013.78
2024-02-18T22:32:24.001Z,101013.78
2024-02-18T22:34:52.445Z,101009.16
2024-02-18T22:37:21.634Z,101019.25
2024-02-18T22:39:49.756Z,101015.41
2024-02-18T22:42:17.525Z,101026.41
2024-02-18T22:44:45.839Z,101034.34
2024-02-18T22:47:13.856Z,101036.78
2024-02-18T22:49:42.286Z,101033.28
2024-02-18T22:52:10.156Z,101049.97
2024-02-18T22:54:39.624Z,101048.03
2024-02-18T22:57:07.776Z,101050.47
2024-02-18T22:59:35.887Z,101058.50
2024-02-18T23:02:04.014Z,101060.72
2024-02-18T23:04:32.134Z,101067.66
2024-02-18T23:06:59.896Z,101080.28
2024-02-18T23:09:28.007Z,101086.63
2024-02-18T23:11:57.426Z,101093.78
2024-02-18T23:14:25.888Z,101096.28
2024-02-18T23:16:53.776Z,101101.78
2024-02-18T23:19:23.212Z,101110.56
2024-02-18T23:21:51.231Z,101125.31
2024-02-18T23:24:19.351Z,101123.97
2024-02-18T23:26:48.656Z,101124.78
2024-02-18T23:29:18.377Z,101135.28
2024-02-18T23:31:46.123Z,101141.56
2024-02-18T23:34:14.521Z,101148.47
2024-02-18T23:36:42.369Z,101150.13
2024-02-18T23:39:11.046Z,101163.78
2024-02-18T23:41:38.790Z,101167.06
2024-02-18T23:44:09.564Z,101172.53
2024-02-18T23:46:38.713Z,101172.00
2024-02-18T23:49:08.197Z,101181.31
2024-02-18T23:51:36.922Z,101184.34
2024-02-18T23:54:05.333Z,101194.47
2024-02-18T23:56:33.340Z,101202.16
2024-02-18T23:59:01.717Z,101211.75
